Latest Coastal Weather Observations for Warrnambool

IDV60701

Issued at 8:05 pm EST Friday 29 August 2014 (issued every 10 minutes, with the page automatically refreshed every 10 minutes)

About coastal observations | Map of coastal stations | Coastal observations for VIC | Marine services | Other Formats
Station Details ID: 090186 Name: WARRNAMBOOL AIRPORT NDB Lat: -38.29 Lon: 142.45 Height: 70.8 m
Data from the previous 72 hours. | See also: Recent months at Warrnambool
Date/Time
EST
Temp

°C
Wind Pressure Rain
since 9am
mm
Weather Cloud Vis
km
Sea
Height
m
Swell
Dir
 
Speed
knots
Gust
knots
hPa Trend Height
m
Period
s
Dir
29/08:00pm 10.3 ESE 3 4 1027.8 - 0.2 - - - - - - -
29/07:30pm 11.3 ESE 5 7 1027.7 - 0.2 - - - - - - -
29/07:00pm 11.6 ESE 4 6 1027.6 - 0.2 - - - - - - -
29/06:30pm 12.0 SE 4 6 1027.5 - 0.2 - - - - - - -
29/06:00pm 12.7 SE 5 6 1027.4 - 0.2 - - - - - - -
29/05:30pm 14.1 SSE 7 8 1027.2 - 0.2 - - - - - - -
29/05:00pm 15.4 SE 8 10 1027.1 - 0.2 - - - - - - -
29/04:30pm 17.7 E 4 6 1027.0 - 0.2 - - - - - - -
29/04:00pm 17.9 E 4 6 1027.0 - 0.2 - - - - - - -
29/03:30pm 18.0 NE 4 6 1027.1 - 0.2 - - - - - - -
29/03:00pm 18.3 ENE 5 9 1027.3 - 0.2 - - - - - - -
29/02:30pm 18.2 NNE 5 8 1027.4 - 0.2 - - - - - - -
29/02:00pm 17.5 ENE 6 8 1027.5 - 0.2 - - - - - - -
29/01:30pm 17.5 NNE 6 10 1027.9 - 0.2 - - - - - - -
29/01:00pm 16.9 ENE 6 9 1028.2 - 0.2 - - - - - - -
29/12:30pm 16.7 ENE 7 10 1028.8 - 0.0 - - - - - - -
29/12:00pm 16.0 ENE 7 10 1029.1 - 0.0 - - - - - - -
29/11:30am 15.9 NE 7 11 1029.4 - 0.0 - - - - - - -
29/11:00am 15.0 NE 7 9 1029.5 - 0.0 - - - - - - -
29/10:30am 14.2 NE 7 9 1029.7 - 0.0 - - - - - - -
29/10:00am 13.6 NE 6 8 1029.9 - 0.0 - - - - - - -
29/09:30am 11.4 NNE 5 5 1030.0 - 0.0 - - - - - - -
29/09:00am 9.6 NNE 5 6 1030.0 - 0.0 - - - - - - -
29/08:30am 7.8 NE 6 7 1029.8 - 0.0 - - - - - - -
29/08:00am 6.1 NE 4 5 1029.5 - 0.0 - - - - - - -
29/07:30am 4.1 N 6 7 1029.3 - 0.0 - - - - - - -
29/07:00am 3.9 N 6 7 1029.1 - 0.0 - - - - - - -
29/06:30am 3.4 NNE 6 7 1028.7 - 0.0 - - - - - - -
29/06:00am 4.4 NNE 6 8 1028.5 - 0.0 - - - - - - -
29/05:30am 4.1 N 5 5 1028.4 - 0.0 - - - - - - -
29/05:00am 3.9 N 5 6 1028.5 - 0.0 - - - - - - -
29/04:30am 4.0 N 6 7 1028.4 - 0.0 - - - - - - -
29/04:00am 4.3 N 5 6 1028.2 - 0.0 - - - - - - -
29/03:30am 4.6 N 5 5 1028.2 - 0.0 - - - - - - -
29/03:00am 4.0 N 6 7 1028.2 - 0.0 - - - - - - -
29/02:30am 4.0 N 7 7 1028.5 - 0.0 - - - - - - -
29/02:00am 5.0 N 5 6 1028.9 - 0.0 - - - - - - -
29/01:30am 5.2 N 5 6 1029.0 - 0.0 - - - - - - -
29/01:00am 5.8 N 5 6 1029.2 - 0.0 - - - - - - -
29/12:30am 6.8 N 5 6 1029.2 - 0.0 - - - - - - -
29/12:00am 7.2 NNE 6 7 1029.2 - 0.0 - - - - - - -
 
Date/Time
EST
Temp

°C
Wind Pressure Rain
since 9am
mm
Weather Cloud Vis
km
Sea
Height
m
Swell
Dir
 
Speed
knots
Gust
knots
hPa Trend Height
m
Period
s
Dir
28/11:30pm 5.7 N 3 4 1029.0 - 0.0 - - - - - - -
28/11:00pm 5.0 NNE 3 5 1029.1 - 0.0 - - - - - - -
28/10:30pm 5.5 CALM 0 0 1029.1 - 0.0 - - - - - - -
28/10:00pm 6.6 CALM 0 0 1029.2 - 0.0 - - - - - - -
28/09:30pm 6.7 CALM 0 0 1029.2 - 0.0 - - - - - - -
28/09:00pm 6.9 CALM 0 0 1029.2 - 0.0 - - - - - - -
28/08:30pm 7.6 CALM 0 0 1029.1 - 0.0 - - - - - - -
28/08:00pm 8.9 CALM 0 0 1028.9 - 0.0 - - - - - - -
28/07:30pm 8.8 SSW 3 3 1028.7 - 0.0 - - - - - - -
28/07:00pm 9.9 SSW 3 4 1028.4 - 0.0 - - - - - - -
28/06:30pm 10.5 SSW 3 4 1028.3 - 0.0 - - - - - - -
28/06:00pm 11.6 SSW 6 6 1028.1 - 0.0 - - - - - - -
28/05:30pm 13.5 SSW 5 7 1028.0 - 0.0 - - - - - - -
28/05:00pm 15.0 SSW 7 8 1027.8 - 0.0 - - - - - - -
28/04:30pm 15.7 SSW 8 9 1027.5 - 0.0 - - - - - - -
28/04:00pm 16.2 SSW 7 9 1027.4 - 0.0 - - - - - - -
28/03:30pm 15.9 SSW 8 10 1027.5 - 0.0 - - - - - - -
28/03:00pm 16.1 SSW 9 11 1027.5 - 0.0 - - - - - - -
28/02:30pm 16.6 SSW 10 13 1027.4 - 0.0 - - - - - - -
28/02:00pm 17.5 WSW 9 11 1027.5 - 0.0 - - - - - - -
28/01:30pm 17.2 WNW 6 10 1027.6 - 0.0 - - - - - - -
28/01:00pm 17.1 WNW 6 9 1027.9 - 0.0 - - - - - - -
28/12:30pm 16.4 W 5 8 1028.3 - 0.0 - - - - - - -
28/12:00pm 15.7 WSW 5 8 1028.8 - 0.0 - - - - - - -
28/11:30am 15.1 W 4 8 1029.1 - 0.0 - - - - - - -
28/11:00am 14.6 W 4 5 1029.2 - 0.0 - - - - - - -
28/10:30am 13.7 NW 2 6 1029.4 - 0.0 - - - - - - -
28/10:00am 12.0 NNW 4 5 1029.5 - 0.0 - - - - - - -
28/09:30am 11.2 N 3 4 1029.5 - 0.0 - - - - - - -
28/09:00am 9.1 NNE 1 4 1029.4 - 0.0 - - - - - - -
28/08:30am 7.5 CALM 0 0 1029.3 - 0.0 - - - - - - -
28/08:00am 5.6 E 3 5 1029.2 - 0.0 - - - - - - -
28/07:30am 5.5 CALM 0 0 1028.9 - 0.0 - - - - - - -
28/07:00am 5.4 N 7 8 1028.5 - 0.0 - - - - - - -
28/06:30am 4.8 N 6 7 1028.4 - 0.0 - - - - - - -
28/06:00am 5.0 N 7 8 1028.2 - 0.0 - - - - - - -
28/05:30am 5.6 N 7 8 1027.9 - 0.0 - - - - - - -
28/05:00am 5.6 N 8 8 1027.8 - 0.0 - - - - - - -
28/04:30am 5.2 N 8 9 1027.8 - 0.0 - - - - - - -
28/04:00am 5.7 N 8 9 1027.7 - 0.0 - - - - - - -
28/03:30am 5.8 N 8 9 1027.9 - 0.0 - - - - - - -
28/03:00am 5.3 N 8 9 1028.0 - 0.0 - - - - - - -
28/02:30am 5.2 N 7 8 1028.1 - 0.0 - - - - - - -
28/02:00am 5.5 N 4 5 1028.5 - 0.0 - - - - - - -
28/01:30am 5.3 N 7 8 1028.5 - 0.0 - - - - - - -
28/01:00am 5.3 N 5 6 1028.9 - 0.0 - - - - - - -
28/12:30am 5.7 N 7 7 1029.0 - 0.0 - - - - - - -
28/12:00am 5.4 N 4 5 1029.1 - 0.0 - - - - - - -
 
Date/Time
EST
Temp

°C
Wind Pressure Rain
since 9am
mm
Weather Cloud Vis
km
Sea
Height
m
Swell
Dir
 
Speed
knots
Gust
knots
hPa Trend Height
m
Period
s
Dir
27/11:30pm 5.9 CALM 0 0 1029.1 - 0.0 - - - - - - -
27/11:00pm 5.9 CALM 0 0 1029.0 - 0.0 - - - - - - -
27/10:30pm 6.4 CALM 0 0 1028.9 - 0.0 - - - - - - -
27/10:00pm 7.4 CALM 0 0 1028.9 - 0.0 - - - - - - -
27/09:30pm 6.9 CALM 0 0 1029.0 - 0.0 - - - - - - -
27/09:00pm 6.9 CALM 0 0 1028.9 - 0.0 - - - - - - -
27/08:30pm 7.6 CALM 0 0 1028.9 - 0.0 - - - - - - -
27/08:00pm 8.8 CALM 0 0 1028.7 - 0.0 - - - - - - -
27/07:30pm 9.6 CALM 0 0 1028.5 - 0.0 - - - - - - -
27/07:00pm 10.4 S 3 3 1028.2 - 0.0 - - - - - - -
27/06:30pm 10.9 S 4 4 1028.0 - 0.0 - - - - - - -
27/06:00pm 12.3 S 4 5 1027.7 - 0.0 - - - - - - -
27/05:30pm 13.8 S 6 7 1027.6 - 0.0 - - - - - - -
27/05:00pm 14.6 S 7 10 1027.3 - 0.0 - - - - - - -
27/04:30pm 14.8 S 8 9 1027.1 - 0.0 - - - - - - -
27/04:00pm 15.3 S 9 12 1027.1 - 0.0 - - - - - - -
27/03:30pm 15.6 SSW 10 13 1027.0 - 0.0 - - - - - - -
27/03:00pm 16.9 SSW 8 10 1026.9 - 0.0 - - - - - - -
27/02:30pm 16.8 S 7 10 1026.8 - 0.0 - - - - - - -
27/02:00pm 16.6 SSW 11 15 1027.1 - 0.0 - - - - - - -
27/01:30pm 17.8 W 6 9 1027.3 - 0.0 - - - - - - -
27/01:00pm 17.0 SW 8 11 1027.6 - 0.0 - - - - - - -
27/12:30pm 17.5 W 8 11 1027.8 - 0.0 - - - - - - -
27/12:00pm 17.0 WSW 9 12 1028.1 - 0.0 - - - - - - -
27/11:30am 16.6 W 7 10 1028.3 - 0.0 - - - - - - -
27/11:00am 16.1 W 6 8 1028.3 - 0.0 - - - - - - -
27/10:30am 14.9 NW 5 7 1028.3 - 0.0 - - - - - - -
27/10:00am 12.8 N 4 6 1028.5 - 0.0 - - - - - - -
27/09:30am 10.9 NNE 5 6 1028.4 - 0.0 - - - - - - -
27/09:00am 8.7 NNE 4 6 1028.4 - 0.2 - - - - - - -
27/08:30am 6.9 N 6 7 1028.0 - 0.2 - - - - - - -
27/08:00am 5.4 NNE 8 9 1027.8 - 0.2 - - - - - - -
27/07:30am 4.3 N 6 8 1027.6 - 0.2 - - - - - - -
27/07:00am 3.7 N 6 8 1027.3 - 0.0 - - - - - - -
27/06:30am 4.3 N 8 9 1026.9 - 0.0 - - - - - - -
27/06:00am 4.5 NNE 6 7 1026.7 - 0.0 - - - - - - -
27/05:30am 4.9 NNE 7 9 1026.5 - 0.0 - - - - - - -
27/05:00am 5.5 NNE 6 8 1026.4 - 0.0 - - - - - - -
27/04:30am 6.3 NNE 6 8 1026.2 - 0.0 - - - - - - -
27/04:00am 6.9 N 6 7 1026.2 - 0.0 - - - - - - -
27/03:30am 7.6 N 6 7 1026.3 - 0.0 - - - - - - -
27/03:00am 8.4 NNE 7 8 1026.5 - 0.0 - - - - - - -
27/02:30am 8.7 NNE 7 8 1026.7 - 0.0 - - - - - - -
27/02:00am 9.0 NNE 6 8 1026.8 - 0.0 - - - - - - -
27/01:30am 9.0 NNE 7 8 1026.8 - 0.0 - - - - - - -
27/01:00am 9.3 N 7 9 1026.9 - 0.0 - - - - - - -
27/12:30am 9.4 N 8 10 1027.0 - 0.0 - - - - - - -
27/12:00am 9.9 NNE 8 11 1026.7 - 0.0 - - - - - - -
 
Date/Time
EST
Temp

°C
Wind Pressure Rain
since 9am
mm
Weather Cloud Vis
km
Sea
Height
m
Swell
Dir
 
Speed
knots
Gust
knots
hPa Trend Height
m
Period
s
Dir
26/11:30pm 9.8 NNE 9 11 1026.7 - 0.0 - - - - - - -
26/11:00pm 9.8 NNE 8 11 1026.7 - 0.0 - - - - - - -
26/10:30pm 9.0 NNE 7 9 1026.7 - 0.0 - - - - - - -
26/10:00pm 9.7 NE 7 8 1026.8 - 0.0 - - - - - - -
26/09:30pm 10.3 ENE 5 6 1026.8 - 0.0 - - - - - - -
26/09:00pm 11.0 NE 6 9 1026.8 - 0.0 - - - - - - -
26/08:30pm 10.8 NE 4 6 1026.8 - 0.0 - - - - - - -

Other Formats:

Comma delimited format used in spreadsheet applications
http://www.bom.gov.au/fwo/IDV60701/IDV60701.94837.axf

JavaScript Object Notation format (JSON) in row-major order
http://www.bom.gov.au/fwo/IDV60701/IDV60701.94837.json